sensor_id;sensor_type;location;lat;lon;timestamp;P1;durP1;ratioP1;P2;durP2;ratioP2
59474;SDS011;45288;51.136;16.928;2023-05-21T00:02:03;159.80;;;146.43;;
59474;SDS011;45288;51.136;16.928;2023-05-21T00:04:28;154.85;;;140.85;;
59474;SDS011;45288;51.136;16.928;2023-05-21T00:06:58;152.60;;;139.23;;
59474;SDS011;45288;51.136;16.928;2023-05-21T00:09:24;169.55;;;154.10;;
59474;SDS011;45288;51.136;16.928;2023-05-21T00:11:49;152.40;;;138.83;;
59474;SDS011;45288;51.136;16.928;2023-05-21T00:14:15;160.35;;;146.82;;
59474;SDS011;45288;51.136;16.928;2023-05-21T00:16:41;169.93;;;155.00;;
59474;SDS011;45288;51.136;16.928;2023-05-21T00:19:06;169.35;;;154.38;;
59474;SDS011;45288;51.136;16.928;2023-05-21T00:21:32;179.30;;;164.10;;
59474;SDS011;45288;51.136;16.928;2023-05-21T00:23:58;178.60;;;163.63;;
59474;SDS011;45288;51.136;16.928;2023-05-21T00:26:23;165.00;;;151.05;;
59474;SDS011;45288;51.136;16.928;2023-05-21T00:28:52;158.60;;;145.38;;
59474;SDS011;45288;51.136;16.928;2023-05-21T00:31:19;127.65;;;115.65;;
59474;SDS011;45288;51.136;16.928;2023-05-21T00:33:45;63.65;;;49.80;;
59474;SDS011;45288;51.136;16.928;2023-05-21T00:36:10;87.27;;;76.37;;
59474;SDS011;45288;51.136;16.928;2023-05-21T00:38:39;72.85;;;54.55;;
59474;SDS011;45288;51.136;16.928;2023-05-21T00:41:08;73.72;;;48.92;;
59474;SDS011;45288;51.136;16.928;2023-05-21T00:43:33;67.20;;;48.63;;
59474;SDS011;45288;51.136;16.928;2023-05-21T00:45:59;66.78;;;49.72;;
59474;SDS011;45288;51.136;16.928;2023-05-21T00:48:25;64.53;;;55.20;;
59474;SDS011;45288;51.136;16.928;2023-05-21T00:50:50;72.47;;;59.35;;
59474;SDS011;45288;51.136;16.928;2023-05-21T00:53:16;66.80;;;54.30;;
59474;SDS011;45288;51.136;16.928;2023-05-21T00:55:44;75.57;;;60.40;;
59474;SDS011;45288;51.136;16.928;2023-05-21T00:58:10;72.20;;;64.30;;
59474;SDS011;45288;51.136;16.928;2023-05-21T01:00:36;68.72;;;57.78;;
59474;SDS011;45288;51.136;16.928;2023-05-21T01:03:02;95.25;;;85.45;;
59474;SDS011;45288;51.136;16.928;2023-05-21T01:05:28;76.75;;;59.05;;
59474;SDS011;45288;51.136;16.928;2023-05-21T01:07:53;66.67;;;56.90;;
59474;SDS011;45288;51.136;16.928;2023-05-21T01:10:20;76.72;;;54.90;;
59474;SDS011;45288;51.136;16.928;2023-05-21T01:12:46;58.58;;;39.47;;
59474;SDS011;45288;51.136;16.928;2023-05-21T01:15:12;71.22;;;52.50;;
59474;SDS011;45288;51.136;16.928;2023-05-21T01:17:38;66.78;;;44.08;;
59474;SDS011;45288;51.136;16.928;2023-05-21T01:20:04;62.22;;;40.95;;
59474;SDS011;45288;51.136;16.928;2023-05-21T01:22:34;57.60;;;46.70;;
59474;SDS011;45288;51.136;16.928;2023-05-21T01:25:00;56.83;;;40.37;;
59474;SDS011;45288;51.136;16.928;2023-05-21T01:27:27;86.70;;;72.75;;
59474;SDS011;45288;51.136;16.928;2023-05-21T01:29:53;72.43;;;46.70;;
59474;SDS011;45288;51.136;16.928;2023-05-21T01:32:37;72.00;;;44.60;;
59474;SDS011;45288;51.136;16.928;2023-05-21T01:35:08;57.78;;;42.10;;
59474;SDS011;45288;51.136;16.928;2023-05-21T01:37:36;64.68;;;38.78;;
59474;SDS011;45288;51.136;16.928;2023-05-21T01:40:13;56.95;;;35.33;;
59474;SDS011;45288;51.136;16.928;2023-05-21T01:42:41;60.67;;;37.70;;
59474;SDS011;45288;51.136;16.928;2023-05-21T01:45:08;152.45;;;139.38;;
59474;SDS011;45288;51.136;16.928;2023-05-21T01:47:34;58.65;;;37.13;;
59474;SDS011;45288;51.136;16.928;2023-05-21T01:50:01;53.78;;;35.42;;
59474;SDS011;45288;51.136;16.928;2023-05-21T01:52:28;62.80;;;33.83;;
59474;SDS011;45288;51.136;16.928;2023-05-21T01:54:55;54.03;;;31.77;;
59474;SDS011;45288;51.136;16.928;2023-05-21T01:57:20;54.95;;;31.35;;
59474;SDS011;45288;51.136;16.928;2023-05-21T01:59:46;55.90;;;30.85;;
59474;SDS011;45288;51.136;16.928;2023-05-21T02:02:12;112.80;;;102.23;;
59474;SDS011;45288;51.136;16.928;2023-05-21T02:04:38;99.07;;;89.00;;
59474;SDS011;45288;51.136;16.928;2023-05-21T02:07:06;83.80;;;75.38;;
59474;SDS011;45288;51.136;16.928;2023-05-21T02:09:31;101.05;;;91.07;;
59474;SDS011;45288;51.136;16.928;2023-05-21T02:11:57;52.00;;;28.63;;
59474;SDS011;45288;51.136;16.928;2023-05-21T02:14:22;54.17;;;29.50;;
59474;SDS011;45288;51.136;16.928;2023-05-21T02:16:49;57.80;;;29.43;;
59474;SDS011;45288;51.136;16.928;2023-05-21T02:19:17;46.53;;;28.42;;
59474;SDS011;45288;51.136;16.928;2023-05-21T02:21:42;53.63;;;29.50;;
59474;SDS011;45288;51.136;16.928;2023-05-21T02:24:08;44.10;;;27.03;;
59474;SDS011;45288;51.136;16.928;2023-05-21T02:26:33;54.90;;;29.27;;
59474;SDS011;45288;51.136;16.928;2023-05-21T02:28:59;45.50;;;26.90;;
59474;SDS011;45288;51.136;16.928;2023-05-21T02:31:25;79.47;;;71.00;;
59474;SDS011;45288;51.136;16.928;2023-05-21T02:33:51;78.77;;;70.53;;
59474;SDS011;45288;51.136;16.928;2023-05-21T02:36:16;61.75;;;42.50;;
59474;SDS011;45288;51.136;16.928;2023-05-21T02:38:43;74.07;;;66.38;;
59474;SDS011;45288;51.136;16.928;2023-05-21T02:41:10;69.23;;;60.83;;
59474;SDS011;45288;51.136;16.928;2023-05-21T02:43:36;54.35;;;38.83;;
59474;SDS011;45288;51.136;16.928;2023-05-21T02:46:03;42.83;;;25.03;;
59474;SDS011;45288;51.136;16.928;2023-05-21T02:48:29;56.13;;;28.52;;
59474;SDS011;45288;51.136;16.928;2023-05-21T02:50:54;46.00;;;27.55;;
59474;SDS011;45288;51.136;16.928;2023-05-21T02:53:20;76.23;;;67.97;;
59474;SDS011;45288;51.136;16.928;2023-05-21T02:55:45;70.63;;;61.40;;
59474;SDS011;45288;51.136;16.928;2023-05-21T02:58:11;100.65;;;91.85;;
59474;SDS011;45288;51.136;16.928;2023-05-21T03:00:38;56.55;;;35.45;;
59474;SDS011;45288;51.136;16.928;2023-05-21T03:03:04;45.80;;;29.33;;
59474;SDS011;45288;51.136;16.928;2023-05-21T03:05:30;69.45;;;57.75;;
59474;SDS011;45288;51.136;16.928;2023-05-21T03:07:55;62.17;;;52.80;;
59474;SDS011;45288;51.136;16.928;2023-05-21T03:10:21;50.63;;;29.02;;
59474;SDS011;45288;51.136;16.928;2023-05-21T03:12:47;53.40;;;33.37;;
59474;SDS011;45288;51.136;16.928;2023-05-21T03:15:12;59.78;;;47.55;;
59474;SDS011;45288;51.136;16.928;2023-05-21T03:17:41;56.03;;;41.22;;
59474;SDS011;45288;51.136;16.928;2023-05-21T03:20:09;51.83;;;32.47;;
59474;SDS011;45288;51.136;16.928;2023-05-21T07:37:30;146.65;;;134.45;;
59474;SDS011;45288;51.136;16.928;2023-05-21T07:39:56;197.70;;;181.27;;
59474;SDS011;45288;51.136;16.928;2023-05-21T07:42:25;246.75;;;227.45;;
59474;SDS011;45288;51.136;16.928;2023-05-21T07:44:52;220.60;;;203.23;;
59474;SDS011;45288;51.136;16.928;2023-05-21T07:47:18;230.43;;;212.00;;
59474;SDS011;45288;51.136;16.928;2023-05-21T07:49:47;251.20;;;231.30;;
59474;SDS011;45288;51.136;16.928;2023-05-21T07:52:12;262.73;;;242.10;;
59474;SDS011;45288;51.136;16.928;2023-05-21T07:54:39;248.63;;;228.98;;
59474;SDS011;45288;51.136;16.928;2023-05-21T07:57:07;239.45;;;220.60;;
59474;SDS011;45288;51.136;16.928;2023-05-21T08:00:05;186.00;;;171.50;;
59474;SDS011;45288;51.136;16.928;2023-05-21T08:02:40;194.63;;;178.40;;
59474;SDS011;45288;51.136;16.928;2023-05-21T08:05:07;189.48;;;174.45;;
59474;SDS011;45288;51.136;16.928;2023-05-21T08:07:32;193.88;;;177.98;;
59474;SDS011;45288;51.136;16.928;2023-05-21T08:09:58;194.10;;;177.63;;
59474;SDS011;45288;51.136;16.928;2023-05-21T08:12:24;184.83;;;169.87;;
59474;SDS011;45288;51.136;16.928;2023-05-21T08:14:50;186.85;;;171.30;;
59474;SDS011;45288;51.136;16.928;2023-05-21T08:17:16;190.20;;;174.40;;
59474;SDS011;45288;51.136;16.928;2023-05-21T08:19:42;195.05;;;179.40;;
59474;SDS011;45288;51.136;16.928;2023-05-21T08:22:09;193.73;;;177.55;;
59474;SDS011;45288;51.136;16.928;2023-05-21T08:24:38;195.15;;;178.60;;
59474;SDS011;45288;51.136;16.928;2023-05-21T08:27:05;179.75;;;165.18;;
59474;SDS011;45288;51.136;16.928;2023-05-21T08:29:33;170.20;;;156.38;;
59474;SDS011;45288;51.136;16.928;2023-05-21T08:31:59;163.25;;;149.80;;
59474;SDS011;45288;51.136;16.928;2023-05-21T08:34:25;148.40;;;137.10;;
59474;SDS011;45288;51.136;16.928;2023-05-21T08:37:08;145.67;;;134.27;;
59474;SDS011;45288;51.136;16.928;2023-05-21T08:39:53;152.77;;;140.77;;
59474;SDS011;45288;51.136;16.928;2023-05-21T08:44:48;196.82;;;180.90;;
59474;SDS011;45288;51.136;16.928;2023-05-21T08:47:15;226.15;;;208.73;;
59474;SDS011;45288;51.136;16.928;2023-05-21T08:49:41;227.07;;;209.43;;
59474;SDS011;45288;51.136;16.928;2023-05-21T08:52:09;217.55;;;200.82;;
59474;SDS011;45288;51.136;16.928;2023-05-21T08:54:34;224.57;;;206.63;;
59474;SDS011;45288;51.136;16.928;2023-05-21T08:57:03;227.73;;;209.60;;
59474;SDS011;45288;51.136;16.928;2023-05-21T08:59:29;200.00;;;184.15;;
59474;SDS011;45288;51.136;16.928;2023-05-21T09:01:55;193.82;;;178.30;;
59474;SDS011;45288;51.136;16.928;2023-05-21T09:04:28;183.70;;;168.70;;
59474;SDS011;45288;51.136;16.928;2023-05-21T09:06:54;188.27;;;173.07;;
59474;SDS011;45288;51.136;16.928;2023-05-21T09:09:46;189.52;;;173.80;;
59474;SDS011;45288;51.136;16.928;2023-05-21T09:12:13;197.85;;;181.85;;
59474;SDS011;45288;51.136;16.928;2023-05-21T09:14:39;222.47;;;204.60;;
59474;SDS011;45288;51.136;16.928;2023-05-21T09:17:13;478.42;;;439.00;;
59474;SDS011;45288;51.136;16.928;2023-05-21T09:22:30;624.47;;;571.83;;
59474;SDS011;45288;51.136;16.928;2023-05-21T09:24:56;679.20;;;622.05;;
59474;SDS011;45288;51.136;16.928;2023-05-21T09:27:22;734.97;;;674.20;;
59474;SDS011;45288;51.136;16.928;2023-05-21T09:29:47;619.57;;;566.73;;
59474;SDS011;45288;51.136;16.928;2023-05-21T09:32:13;567.45;;;519.30;;
59474;SDS011;45288;51.136;16.928;2023-05-21T09:34:41;572.25;;;523.88;;
59474;SDS011;45288;51.136;16.928;2023-05-21T09:37:07;560.00;;;512.97;;
59474;SDS011;45288;51.136;16.928;2023-05-21T09:39:33;597.43;;;546.47;;
59474;SDS011;45288;51.136;16.928;2023-05-21T09:42:02;647.13;;;593.05;;
59474;SDS011;45288;51.136;16.928;2023-05-21T09:44:28;479.57;;;439.53;;
59474;SDS011;45288;51.136;16.928;2023-05-21T09:46:55;510.67;;;467.33;;
59474;SDS011;45288;51.136;16.928;2023-05-21T09:49:22;505.70;;;463.65;;
59474;SDS011;45288;51.136;16.928;2023-05-21T09:51:55;611.88;;;560.05;;
59474;SDS011;45288;51.136;16.928;2023-05-21T09:54:22;536.43;;;490.97;;
59474;SDS011;45288;51.136;16.928;2023-05-21T09:56:49;504.90;;;462.63;;
59474;SDS011;45288;51.136;16.928;2023-05-21T09:59:15;534.13;;;489.23;;
59474;SDS011;45288;51.136;16.928;2023-05-21T10:01:41;539.47;;;493.05;;
59474;SDS011;45288;51.136;16.928;2023-05-21T10:04:08;530.67;;;485.70;;
59474;SDS011;45288;51.136;16.928;2023-05-21T10:06:36;486.40;;;445.40;;
59474;SDS011;45288;51.136;16.928;2023-05-21T10:09:04;871.80;;;800.10;;
59474;SDS011;45288;51.136;16.928;2023-05-21T10:11:31;717.67;;;657.60;;
59474;SDS011;45288;51.136;16.928;2023-05-21T10:14:00;718.42;;;658.10;;
59474;SDS011;45288;51.136;16.928;2023-05-21T10:16:27;701.78;;;643.08;;
59474;SDS011;45288;51.136;16.928;2023-05-21T10:18:54;670.95;;;614.17;;
59474;SDS011;45288;51.136;16.928;2023-05-21T10:21:21;536.85;;;491.55;;
59474;SDS011;45288;51.136;16.928;2023-05-21T10:23:48;556.47;;;508.73;;
59474;SDS011;45288;51.136;16.928;2023-05-21T10:26:14;524.17;;;479.42;;
59474;SDS011;45288;51.136;16.928;2023-05-21T10:28:40;546.88;;;500.17;;
59474;SDS011;45288;51.136;16.928;2023-05-21T10:31:06;589.67;;;539.67;;
59474;SDS011;45288;51.136;16.928;2023-05-21T10:33:32;718.70;;;658.07;;
59474;SDS011;45288;51.136;16.928;2023-05-21T10:35:59;878.08;;;805.45;;
59474;SDS011;45288;51.136;16.928;2023-05-21T10:38:28;785.28;;;719.58;;
59474;SDS011;45288;51.136;16.928;2023-05-21T10:40:54;787.63;;;721.63;;
59474;SDS011;45288;51.136;16.928;2023-05-21T10:43:33;887.73;;;814.47;;
59474;SDS011;45288;51.136;16.928;2023-05-21T10:48:51;728.90;;;667.30;;
59474;SDS011;45288;51.136;16.928;2023-05-21T10:51:23;1163.32;;;999.90;;
59474;SDS011;45288;51.136;16.928;2023-05-21T10:56:35;1070.90;;;984.78;;
59474;SDS011;45288;51.136;16.928;2023-05-21T11:01:48;1080.95;;;992.78;;
59474;SDS011;45288;51.136;16.928;2023-05-21T11:04:14;1168.32;;;999.90;;
59474;SDS011;45288;51.136;16.928;2023-05-21T11:06:45;1332.25;;;999.90;;
59474;SDS011;45288;51.136;16.928;2023-05-21T11:09:12;957.87;;;879.87;;
59474;SDS011;45288;51.136;16.928;2023-05-21T11:11:51;1176.47;;;999.90;;
59474;SDS011;45288;51.136;16.928;2023-05-21T11:17:13;760.47;;;696.38;;
59474;SDS011;45288;51.136;16.928;2023-05-21T11:19:43;765.03;;;701.22;;
59474;SDS011;45288;51.136;16.928;2023-05-21T11:24:49;887.92;;;814.45;;
59474;SDS011;45288;51.136;16.928;2023-05-21T11:27:34;843.20;;;773.85;;
59474;SDS011;45288;51.136;16.928;2023-05-21T11:30:09;776.17;;;710.95;;
59474;SDS011;45288;51.136;16.928;2023-05-21T11:32:39;776.67;;;711.20;;
59474;SDS011;45288;51.136;16.928;2023-05-21T11:35:05;761.55;;;697.20;;
59474;SDS011;45288;51.136;16.928;2023-05-21T11:37:35;751.75;;;688.22;;
59474;SDS011;45288;51.136;16.928;2023-05-21T11:42:42;717.83;;;656.28;;
59474;SDS011;45288;51.136;16.928;2023-05-21T11:45:13;681.05;;;623.20;;
59474;SDS011;45288;51.136;16.928;2023-05-21T11:47:41;720.30;;;659.35;;
59474;SDS011;45288;51.136;16.928;2023-05-21T11:50:11;743.63;;;680.53;;
59474;SDS011;45288;51.136;16.928;2023-05-21T11:52:37;847.63;;;777.30;;
59474;SDS011;45288;51.136;16.928;2023-05-21T11:55:03;747.17;;;684.27;;
59474;SDS011;45288;51.136;16.928;2023-05-21T11:57:28;677.47;;;620.45;;
59474;SDS011;45288;51.136;16.928;2023-05-21T11:59:58;618.65;;;565.35;;
59474;SDS011;45288;51.136;16.928;2023-05-21T12:02:25;615.67;;;562.33;;
59474;SDS011;45288;51.136;16.928;2023-05-21T12:04:51;630.92;;;576.22;;
59474;SDS011;45288;51.136;16.928;2023-05-21T12:07:18;625.00;;;571.17;;
59474;SDS011;45288;51.136;16.928;2023-05-21T12:12:10;636.53;;;581.85;;
59474;SDS011;45288;51.136;16.928;2023-05-21T12:14:37;697.03;;;638.15;;
59474;SDS011;45288;51.136;16.928;2023-05-21T12:17:04;1061.85;;;975.65;;
59474;SDS011;45288;51.136;16.928;2023-05-21T12:19:33;845.15;;;774.58;;
59474;SDS011;45288;51.136;16.928;2023-05-21T12:22:00;814.03;;;745.25;;
59474;SDS011;45288;51.136;16.928;2023-05-21T12:24:27;781.17;;;714.78;;
59474;SDS011;45288;51.136;16.928;2023-05-21T12:26:53;780.53;;;714.47;;
59474;SDS011;45288;51.136;16.928;2023-05-21T12:29:19;748.67;;;685.50;;
59474;SDS011;45288;51.136;16.928;2023-05-21T12:31:46;781.90;;;715.58;;
59474;SDS011;45288;51.136;16.928;2023-05-21T12:34:12;767.53;;;702.97;;
59474;SDS011;45288;51.136;16.928;2023-05-21T12:36:41;746.90;;;684.37;;
59474;SDS011;45288;51.136;16.928;2023-05-21T12:39:10;730.22;;;668.80;;
59474;SDS011;45288;51.136;16.928;2023-05-21T12:41:36;700.30;;;641.37;;
59474;SDS011;45288;51.136;16.928;2023-05-21T12:44:01;702.70;;;642.70;;
59474;SDS011;45288;51.136;16.928;2023-05-21T12:46:29;828.92;;;759.25;;
59474;SDS011;45288;51.136;16.928;2023-05-21T12:48:55;855.87;;;784.30;;
59474;SDS011;45288;51.136;16.928;2023-05-21T12:51:20;1118.83;;;999.90;;
59474;SDS011;45288;51.136;16.928;2023-05-21T12:53:46;1314.18;;;999.90;;
59474;SDS011;45288;51.136;16.928;2023-05-21T12:56:12;1280.80;;;999.90;;
59474;SDS011;45288;51.136;16.928;2023-05-21T12:58:38;1005.30;;;922.75;;
59474;SDS011;45288;51.136;16.928;2023-05-21T13:01:07;1060.70;;;974.45;;
59474;SDS011;45288;51.136;16.928;2023-05-21T13:03:36;1120.13;;;999.90;;
59474;SDS011;45288;51.136;16.928;2023-05-21T13:06:04;1347.80;;;999.90;;
59474;SDS011;45288;51.136;16.928;2023-05-21T13:08:30;1211.97;;;999.90;;
59474;SDS011;45288;51.136;16.928;2023-05-21T13:10:59;1086.30;;;998.28;;
59474;SDS011;45288;51.136;16.928;2023-05-21T13:13:24;793.20;;;726.10;;
59474;SDS011;45288;51.136;16.928;2023-05-21T13:15:51;621.38;;;567.78;;
59474;SDS011;45288;51.136;16.928;2023-05-21T13:18:17;526.22;;;481.52;;
59474;SDS011;45288;51.136;16.928;2023-05-21T13:20:45;535.90;;;489.42;;
59474;SDS011;45288;51.136;16.928;2023-05-21T13:23:10;694.70;;;634.90;;
59474;SDS011;45288;51.136;16.928;2023-05-21T13:25:36;787.90;;;722.35;;
59474;SDS011;45288;51.136;16.928;2023-05-21T13:28:02;568.50;;;519.28;;
59474;SDS011;45288;51.136;16.928;2023-05-21T13:30:29;576.30;;;526.38;;
59474;SDS011;45288;51.136;16.928;2023-05-21T13:32:54;602.67;;;550.50;;
59474;SDS011;45288;51.136;16.928;2023-05-21T13:35:20;604.77;;;552.33;;
59474;SDS011;45288;51.136;16.928;2023-05-21T13:37:46;566.33;;;516.80;;
59474;SDS011;45288;51.136;16.928;2023-05-21T13:40:12;559.83;;;511.58;;
59474;SDS011;45288;51.136;16.928;2023-05-21T13:42:41;541.25;;;495.13;;
59474;SDS011;45288;51.136;16.928;2023-05-21T13:45:08;549.83;;;502.30;;
59474;SDS011;45288;51.136;16.928;2023-05-21T13:47:34;597.13;;;545.45;;
59474;SDS011;45288;51.136;16.928;2023-05-21T13:50:00;1334.68;;;999.90;;
59474;SDS011;45288;51.136;16.928;2023-05-21T13:52:25;1277.83;;;999.90;;
59474;SDS011;45288;51.136;16.928;2023-05-21T13:54:51;1172.93;;;999.90;;
59474;SDS011;45288;51.136;16.928;2023-05-21T13:57:17;1317.95;;;999.90;;
59474;SDS011;45288;51.136;16.928;2023-05-21T13:59:43;1186.20;;;999.90;;
59474;SDS011;45288;51.136;16.928;2023-05-21T14:02:08;864.90;;;792.20;;
59474;SDS011;45288;51.136;16.928;2023-05-21T14:04:34;701.67;;;641.88;;
59474;SDS011;45288;51.136;16.928;2023-05-21T14:07:00;614.35;;;562.08;;
59474;SDS011;45288;51.136;16.928;2023-05-21T14:09:26;684.70;;;625.67;;
59474;SDS011;45288;51.136;16.928;2023-05-21T14:11:52;684.27;;;625.23;;
59474;SDS011;45288;51.136;16.928;2023-05-21T14:14:17;680.75;;;622.60;;
59474;SDS011;45288;51.136;16.928;2023-05-21T14:16:46;651.57;;;595.80;;
59474;SDS011;45288;51.136;16.928;2023-05-21T14:19:12;545.58;;;498.67;;
59474;SDS011;45288;51.136;16.928;2023-05-21T14:21:39;552.37;;;505.13;;
59474;SDS011;45288;51.136;16.928;2023-05-21T14:24:05;438.65;;;401.38;;
59474;SDS011;45288;51.136;16.928;2023-05-21T14:26:30;441.50;;;403.97;;
59474;SDS011;45288;51.136;16.928;2023-05-21T14:28:56;443.23;;;405.30;;
59474;SDS011;45288;51.136;16.928;2023-05-21T14:31:22;439.10;;;401.88;;
59474;SDS011;45288;51.136;16.928;2023-05-21T14:33:49;440.20;;;402.45;;
59474;SDS011;45288;51.136;16.928;2023-05-21T14:36:15;420.90;;;385.60;;
59474;SDS011;45288;51.136;16.928;2023-05-21T14:38:41;430.75;;;394.10;;
59474;SDS011;45288;51.136;16.928;2023-05-21T14:41:06;447.90;;;409.47;;
59474;SDS011;45288;51.136;16.928;2023-05-21T14:43:33;501.52;;;458.48;;
59474;SDS011;45288;51.136;16.928;2023-05-21T14:45:58;474.43;;;433.63;;
59474;SDS011;45288;51.136;16.928;2023-05-21T14:48:24;458.75;;;419.20;;
59474;SDS011;45288;51.136;16.928;2023-05-21T14:50:50;441.17;;;403.13;;
59474;SDS011;45288;51.136;16.928;2023-05-21T14:53:16;443.65;;;405.48;;
59474;SDS011;45288;51.136;16.928;2023-05-21T14:55:42;439.73;;;402.33;;
59474;SDS011;45288;51.136;16.928;2023-05-21T14:58:08;450.95;;;411.98;;
59474;SDS011;45288;51.136;16.928;2023-05-21T15:00:34;437.60;;;400.63;;
59474;SDS011;45288;51.136;16.928;2023-05-21T15:02:59;436.33;;;399.02;;
59474;SDS011;45288;51.136;16.928;2023-05-21T15:05:26;433.00;;;395.90;;
59474;SDS011;45288;51.136;16.928;2023-05-21T15:07:57;447.15;;;408.83;;
59474;SDS011;45288;51.136;16.928;2023-05-21T15:10:24;442.98;;;405.25;;
59474;SDS011;45288;51.136;16.928;2023-05-21T15:12:50;458.58;;;419.20;;
59474;SDS011;45288;51.136;16.928;2023-05-21T15:15:15;469.17;;;428.57;;
59474;SDS011;45288;51.136;16.928;2023-05-21T15:17:41;451.83;;;413.50;;
59474;SDS011;45288;51.136;16.928;2023-05-21T15:20:07;453.70;;;414.57;;
59474;SDS011;45288;51.136;16.928;2023-05-21T15:22:33;460.95;;;421.63;;
59474;SDS011;45288;51.136;16.928;2023-05-21T15:24:59;479.08;;;436.50;;
59474;SDS011;45288;51.136;16.928;2023-05-21T15:27:25;522.85;;;476.15;;
59474;SDS011;45288;51.136;16.928;2023-05-21T15:29:50;567.73;;;515.93;;
59474;SDS011;45288;51.136;16.928;2023-05-21T15:32:16;558.38;;;508.52;;
59474;SDS011;45288;51.136;16.928;2023-05-21T15:34:42;581.33;;;528.78;;
59474;SDS011;45288;51.136;16.928;2023-05-21T15:37:08;588.73;;;535.40;;
59474;SDS011;45288;51.136;16.928;2023-05-21T15:39:33;597.35;;;544.58;;
59474;SDS011;45288;51.136;16.928;2023-05-21T15:41:59;713.53;;;650.60;;
59474;SDS011;45288;51.136;16.928;2023-05-21T15:44:25;784.83;;;717.40;;
59474;SDS011;45288;51.136;16.928;2023-05-21T15:46:50;851.42;;;780.00;;
59474;SDS011;45288;51.136;16.928;2023-05-21T15:49:18;1342.85;;;999.90;;
59474;SDS011;45288;51.136;16.928;2023-05-21T15:51:43;1299.53;;;999.90;;
59474;SDS011;45288;51.136;16.928;2023-05-21T15:54:10;1281.50;;;999.90;;
59474;SDS011;45288;51.136;16.928;2023-05-21T15:56:36;1133.83;;;999.90;;
59474;SDS011;45288;51.136;16.928;2023-05-21T15:59:02;1256.35;;;999.90;;
59474;SDS011;45288;51.136;16.928;2023-05-21T16:01:28;1209.07;;;999.90;;
59474;SDS011;45288;51.136;16.928;2023-05-21T16:03:54;743.17;;;679.83;;
59474;SDS011;45288;51.136;16.928;2023-05-21T16:06:20;633.65;;;579.35;;
59474;SDS011;45288;51.136;16.928;2023-05-21T16:08:45;544.47;;;497.33;;
59474;SDS011;45288;51.136;16.928;2023-05-21T16:11:11;538.28;;;491.95;;
59474;SDS011;45288;51.136;16.928;2023-05-21T16:13:37;532.63;;;487.20;;
59474;SDS011;45288;51.136;16.928;2023-05-21T16:16:02;541.70;;;494.93;;
59474;SDS011;45288;51.136;16.928;2023-05-21T16:18:28;550.55;;;502.90;;
59474;SDS011;45288;51.136;16.928;2023-05-21T16:20:54;669.57;;;612.53;;
59474;SDS011;45288;51.136;16.928;2023-05-21T16:23:20;517.45;;;473.00;;
59474;SDS011;45288;51.136;16.928;2023-05-21T16:25:46;727.97;;;665.80;;
59474;SDS011;45288;51.136;16.928;2023-05-21T16:28:12;774.38;;;708.55;;
59474;SDS011;45288;51.136;16.928;2023-05-21T16:30:38;774.37;;;709.00;;
59474;SDS011;45288;51.136;16.928;2023-05-21T16:33:04;787.13;;;720.15;;
59474;SDS011;45288;51.136;16.928;2023-05-21T16:35:30;775.20;;;709.53;;
59474;SDS011;45288;51.136;16.928;2023-05-21T16:37:56;706.08;;;645.65;;
59474;SDS011;45288;51.136;16.928;2023-05-21T16:40:22;656.20;;;600.00;;
59474;SDS011;45288;51.136;16.928;2023-05-21T16:42:48;657.45;;;601.25;;
59474;SDS011;45288;51.136;16.928;2023-05-21T16:45:13;756.90;;;691.97;;
59474;SDS011;45288;51.136;16.928;2023-05-21T16:47:45;752.22;;;688.28;;
59474;SDS011;45288;51.136;16.928;2023-05-21T16:50:11;726.60;;;664.90;;
59474;SDS011;45288;51.136;16.928;2023-05-21T16:52:37;907.58;;;833.33;;
59474;SDS011;45288;51.136;16.928;2023-05-21T16:55:03;607.40;;;555.37;;
59474;SDS011;45288;51.136;16.928;2023-05-21T16:57:28;691.53;;;632.33;;
59474;SDS011;45288;51.136;16.928;2023-05-21T16:59:54;628.55;;;573.90;;
59474;SDS011;45288;51.136;16.928;2023-05-21T17:02:20;496.87;;;455.33;;
59474;SDS011;45288;51.136;16.928;2023-05-21T17:04:45;532.27;;;486.03;;
59474;SDS011;45288;51.136;16.928;2023-05-21T17:07:11;571.90;;;522.20;;
59474;SDS011;45288;51.136;16.928;2023-05-21T17:09:36;554.63;;;507.10;;
59474;SDS011;45288;51.136;16.928;2023-05-21T17:12:02;570.73;;;521.63;;
59474;SDS011;45288;51.136;16.928;2023-05-21T17:14:28;580.00;;;530.00;;
59474;SDS011;45288;51.136;16.928;2023-05-21T17:16:54;526.43;;;481.60;;
59474;SDS011;45288;51.136;16.928;2023-05-21T17:19:19;588.03;;;537.22;;
59474;SDS011;45288;51.136;16.928;2023-05-21T17:21:45;574.97;;;526.03;;
59474;SDS011;45288;51.136;16.928;2023-05-21T17:24:11;626.27;;;572.27;;
59474;SDS011;45288;51.136;16.928;2023-05-21T17:26:37;605.08;;;553.63;;
59474;SDS011;45288;51.136;16.928;2023-05-21T17:29:02;624.87;;;571.80;;
59474;SDS011;45288;51.136;16.928;2023-05-21T17:31:28;611.93;;;559.97;;
59474;SDS011;45288;51.136;16.928;2023-05-21T17:33:56;650.53;;;594.92;;
59474;SDS011;45288;51.136;16.928;2023-05-21T17:36:21;1162.87;;;999.90;;
59474;SDS011;45288;51.136;16.928;2023-05-21T17:38:47;673.35;;;616.53;;
59474;SDS011;45288;51.136;16.928;2023-05-21T17:41:13;733.88;;;672.20;;
59474;SDS011;45288;51.136;16.928;2023-05-21T17:43:40;677.42;;;620.35;;
59474;SDS011;45288;51.136;16.928;2023-05-21T17:46:06;685.43;;;627.43;;
59474;SDS011;45288;51.136;16.928;2023-05-21T17:48:32;718.33;;;658.25;;
59474;SDS011;45288;51.136;16.928;2023-05-21T17:50:57;738.40;;;676.97;;
59474;SDS011;45288;51.136;16.928;2023-05-21T17:53:23;558.40;;;510.87;;
59474;SDS011;45288;51.136;16.928;2023-05-21T17:55:49;559.17;;;512.25;;
59474;SDS011;45288;51.136;16.928;2023-05-21T17:58:14;669.43;;;613.20;;
59474;SDS011;45288;51.136;16.928;2023-05-21T18:00:40;646.63;;;592.20;;
59474;SDS011;45288;51.136;16.928;2023-05-21T18:03:06;703.80;;;644.85;;
59474;SDS011;45288;51.136;16.928;2023-05-21T18:05:31;674.07;;;617.83;;
59474;SDS011;45288;51.136;16.928;2023-05-21T18:07:58;737.70;;;676.40;;
59474;SDS011;45288;51.136;16.928;2023-05-21T18:10:26;798.30;;;732.17;;
59474;SDS011;45288;51.136;16.928;2023-05-21T18:12:52;652.95;;;597.78;;
59474;SDS011;45288;51.136;16.928;2023-05-21T18:15:18;686.92;;;628.97;;
59474;SDS011;45288;51.136;16.928;2023-05-21T18:17:43;775.65;;;711.38;;
59474;SDS011;45288;51.136;16.928;2023-05-21T18:20:10;743.78;;;682.22;;
59474;SDS011;45288;51.136;16.928;2023-05-21T18:22:35;830.00;;;762.42;;
59474;SDS011;45288;51.136;16.928;2023-05-21T18:25:02;1174.90;;;999.90;;
59474;SDS011;45288;51.136;16.928;2023-05-21T18:27:28;595.37;;;544.93;;